KMTH

Details ICAO KMTH (MTH)
Name The Florida Keys Marathon
Region United States
Timezone America/New_York (UTC-5.0)
Plans Departing 46
Arriving 64
Stats Elevation 5 ft / 2 m (AMSL)
Location 24.726183° -81.051368°
Runways 1
Magnetic Variation 6.009° W
Sunrise 2017-12-12 12:00:44 UTC / 2017-12-12 07:00:44 Local
Sunset 2017-12-12 22:38:12 UTC / 2017-12-12 17:38:12 Local
Advertisement - Login to hide

Runways

ID Width Length Bearing (true) Bearing (mag) Surface Threshold Offset Overrun Length
07 98 ft / 30 m 5,006 ft / 1,526 m 67.17° 73.18° Asphalt 0 ft / 0 m 410 ft / 125 m
25 98 ft / 30 m 5,006 ft / 1,526 m 247.18° 253.19° Asphalt 0 ft / 0 m 410 ft / 125 m

Map

Weather


0- 5 10 15 20 25 30 35+ Temperature / ° C

Clouds and Precipitation
Forecast for 2017-12-13 06:00 UTC. Updated 40 minutes ago

Ground ~20,000 ft ~40,000 ft Winds

METAR

KMTH 130153Z AUTO 30005KT 10SM CLR 20/16 A3001 RMK AO2 SLP163 T02000156 $

TAF

KMTH 122329Z 1300/1324 27010KT P6SM SCT050 FM130200 32012G17KT P6SM BKN050 TEMPO 1302/1304 BKN050 FM131500 36010KT P6SM SCT020

Frequencies

Recorded 135.52 MHz ASOS
Unicom 122.80 MHz CTAF/UNICOM
Warning: Do not use this data for real-world aviation or navigation. No guarantee of current accuracy is given.